KRDG/RDG METAR and TAF weather

Enter ICAO airport designator
Station Type Date Time Source
KRDG METAR 2019/12/09 05:54 UTC NOAA

KRDG 090554Z AUTO 00000KT 10SM OVC015 02/M01 A3027 RMK AO2 SLP257 T00171006 10033 21006 58017 $


Station Type Date Time Source
KRDG Decoded METAR 2019/12/09 05:54 UTC NOAA

READING REGIONAL AIRPORT, PA, United States (KRDG) 40-22N 075-58W 109M
Dec 09, 2019 - 12:54 AM EST / 2019.12.09 0554 UTC
Wind: Calm:0
Visibility: 10 mile(s):0
Sky conditions: overcast
Temperature: 35.1 F (1.7 C)
Dew Point: 30.9 F (-0.6 C)
Relative Humidity: 84%
Pressure (altimeter): 30.27 in. Hg (1025 hPa)
Pressure tendency: 0.05 inches (1.7 hPa) lower than three hours ago
ob: KRDG 090554Z AUTO 00000KT 10SM OVC015 02/M01 A3027 RMK AO2 SLP257 T00171006 10033 21006 58017
cycle: 6

Station Type Date Time Source
KRDG TAF 2019/12/09 06:39 UTC NOAA

TAF KRDG 090536Z 0906/1006 VRB03KT 6SM -RADZ OVC018
FM091100 VRB03KT 1SM -RA BR OVC008
FM091600 16008KT 1SM -RA OVC003 WS020/20035KT
FM100000 20011KT 4SM -SHRA BR OVC008 WS020/20035KT

Example: see airport list